Time;durP1;ratioP1;P1;durP2;ratioP2;P2;SDS_P1;SDS_P2;PMS_P1;PMS_P2;Temp;Humidity;BMP_temperature;BMP_pressure;BME280_temperature;BME280_humidity;BME280_pressure;Samples;Min_cycle;Max_cycle;Signal;HPM_P1;HPM_P2
2023/10/17 00:01:35;;;;;;;16.80;8.65;;;;;;;;;;5065472;28;20394;-68
2023/10/17 00:04:11;;;;;;;13.82;8.40;;;;;;;;;;5058487;28;20020;-69
2023/10/17 00:06:37;;;;;;;16.95;8.52;;;;;;;;;;5059913;28;20474;-69
2023/10/17 00:09:05;;;;;;;13.65;8.00;;;;;;;;;;5071983;28;20024;-69
2023/10/17 00:11:39;;;;;;;15.52;7.63;;;;;;;;;;5077006;28;20031;-69
2023/10/17 00:14:11;;;;;;;15.25;7.57;;;;;;;;;;5075899;28;20027;-70
2023/10/17 00:16:37;;;;;;;13.27;7.53;;;;;;;;;;5077262;28;20026;-68
2023/10/17 00:19:04;;;;;;;16.33;7.20;;;;;;;;;;5066517;28;20020;-69
2023/10/17 00:21:31;;;;;;;12.68;7.38;;;;;;;;;;5073564;28;20024;-70
2023/10/17 00:23:59;;;;;;;14.50;7.40;;;;;;;;;;5075853;28;20023;-69
2023/10/17 00:26:24;;;;;;;14.93;7.82;;;;;;;;;;5072202;28;20078;-69
2023/10/17 00:28:52;;;;;;;12.07;6.93;;;;;;;;;;5071700;28;20033;-69
2023/10/17 00:31:21;;;;;;;12.75;6.50;;;;;;;;;;5072904;28;20292;-69
2023/10/17 00:33:49;;;;;;;12.90;6.95;;;;;;;;;;5073519;28;20048;-69
2023/10/17 00:36:16;;;;;;;16.30;7.18;;;;;;;;;;5072989;28;20224;-69
2023/10/17 00:38:43;;;;;;;12.05;7.38;;;;;;;;;;5072903;28;20042;-69
2023/10/17 00:41:10;;;;;;;12.40;6.93;;;;;;;;;;5073310;28;20032;-69
2023/10/17 00:43:35;;;;;;;13.80;7.07;;;;;;;;;;5073990;28;20081;-71
2023/10/17 00:46:00;;;;;;;13.50;6.33;;;;;;;;;;5074779;28;20024;-69
2023/10/17 00:48:26;;;;;;;16.33;6.88;;;;;;;;;;5073225;28;20269;-71
2023/10/17 00:50:57;;;;;;;14.52;6.88;;;;;;;;;;5077972;28;20020;-70
2023/10/17 00:53:23;;;;;;;13.48;6.78;;;;;;;;;;5077866;28;20040;-70
2023/10/17 00:55:55;;;;;;;13.40;6.70;;;;;;;;;;5074640;28;20315;-69
2023/10/17 00:58:24;;;;;;;10.30;6.82;;;;;;;;;;5074155;28;20032;-69
2023/10/17 01:00:54;;;;;;;13.55;7.30;;;;;;;;;;5063114;28;20032;-69
2023/10/17 01:03:20;;;;;;;12.55;7.30;;;;;;;;;;5078002;28;20031;-70
2023/10/17 01:05:57;;;;;;;12.60;7.05;;;;;;;;;;5078811;28;20024;-69
2023/10/17 01:08:23;;;;;;;13.65;7.82;;;;;;;;;;5080092;28;20067;-69
2023/10/17 01:10:48;;;;;;;11.77;6.95;;;;;;;;;;5081945;28;20056;-71
2023/10/17 01:13:13;;;;;;;14.35;7.28;;;;;;;;;;5081623;28;20109;-70
2023/10/17 01:15:39;;;;;;;12.20;6.73;;;;;;;;;;5078030;28;20531;-72
2023/10/17 01:18:04;;;;;;;11.87;7.20;;;;;;;;;;5079641;28;20273;-71
2023/10/17 01:20:30;;;;;;;11.95;6.60;;;;;;;;;;5078632;28;20289;-70
2023/10/17 01:23:00;;;;;;;11.10;6.20;;;;;;;;;;5077835;28;20035;-71
2023/10/17 01:25:29;;;;;;;10.77;6.60;;;;;;;;;;5063890;28;20031;-71
2023/10/17 01:27:57;;;;;;;10.88;6.43;;;;;;;;;;5076720;28;20027;-69
2023/10/17 01:30:23;;;;;;;11.52;6.43;;;;;;;;;;5094065;28;20032;-73
2023/10/17 01:32:49;;;;;;;16.13;6.82;;;;;;;;;;5075619;28;20029;-70
2023/10/17 01:35:19;;;;;;;17.55;6.97;;;;;;;;;;5078350;28;20081;-71
2023/10/17 01:37:44;;;;;;;12.50;6.25;;;;;;;;;;5094178;28;20433;-71
2023/10/17 01:40:18;;;;;;;14.55;6.38;;;;;;;;;;5077026;28;20036;-70
2023/10/17 01:42:44;;;;;;;11.27;6.15;;;;;;;3.01;nan;101083.78;5077117;28;20099;-71
2023/10/17 01:45:13;;;;;;;10.98;6.05;;;;;;;;;;5076540;28;20147;-70
2023/10/17 01:47:38;;;;;;;13.18;6.68;;;;;;;;;;5079178;28;20052;-71
2023/10/17 01:50:05;;;;;;;11.65;6.30;;;;;;;;;;5080365;28;20059;-71
2023/10/17 01:52:31;;;;;;;13.48;6.50;;;;;;;;;;5076581;28;20024;-71
2023/10/17 01:54:59;;;;;;;12.95;6.25;;;;;;;;;;5080445;28;20036;-72
2023/10/17 01:57:24;;;;;;;12.15;7.05;;;;;;;;;;5074949;28;20630;-71
2023/10/17 01:59:49;;;;;;;11.23;6.57;;;;;;;;;;5075990;28;20056;-72
2023/10/17 02:02:15;;;;;;;10.23;6.10;;;;;;;;;;5077739;28;20028;-70
2023/10/17 02:04:40;;;;;;;13.50;6.67;;;;;;;;;;5064187;28;20103;-72
2023/10/17 02:07:06;;;;;;;15.65;6.30;;;;;;;;;;5061248;28;20280;-71
2023/10/17 02:12:00;;;;;;;11.67;6.60;;;;;;;;;;5075323;28;20265;-70
2023/10/17 02:14:25;;;;;;;11.93;6.85;;;;;;;;;;5080359;28;20284;-72
2023/10/17 02:16:51;;;;;;;15.82;6.35;;;;;;;;;;5078551;28;20028;-70
2023/10/17 02:19:19;;;;;;;13.30;6.50;;;;;;;;;;5076026;28;20114;-72
2023/10/17 02:21:45;;;;;;;9.57;6.25;;;;;;;;;;5077043;28;20013;-71
2023/10/17 02:24:11;;;;;;;9.98;6.20;;;;;;;;;;5076936;28;20035;-71
2023/10/17 02:26:43;;;;;;;10.82;6.25;;;;;;;;;;5076353;28;20099;-72
2023/10/17 02:29:11;;;;;;;12.32;6.15;;;;;;;;;;5061203;28;20052;-71
2023/10/17 02:31:40;;;;;;;11.05;6.30;;;;;;;;;;5075149;28;20114;-72
2023/10/17 02:34:09;;;;;;;10.98;6.20;;;;;;;;;;5079293;28;20032;-70
2023/10/17 02:36:34;;;;;;;10.80;6.67;;;;;;;;;;5079235;28;20112;-71
2023/10/17 02:38:59;;;;;;;10.55;6.40;;;;;;;;;;5077630;28;20399;-71
2023/10/17 02:41:25;;;;;;;11.20;6.30;;;;;;;;;;5076607;28;20036;-71
2023/10/17 02:43:56;;;;;;;11.35;6.78;;;;;;;;;;5074817;28;20325;-71
2023/10/17 02:46:26;;;;;;;12.65;6.65;;;;;;;;;;5076695;28;20036;-72
2023/10/17 02:48:52;;;;;;;14.00;6.43;;;;;;;;;;5073529;28;20025;-71
2023/10/17 02:53:46;;;;;;;13.35;6.40;;;;;;;;;;5075281;28;20036;-70
2023/10/17 02:56:20;;;;;;;10.20;6.63;;;;;;;;;;5073679;28;20107;-70
2023/10/17 02:58:59;;;;;;;8.23;6.03;;;;;;;;;;5064633;28;20035;-71
2023/10/17 03:01:24;;;;;;;13.10;6.25;;;;;;;;;;5066366;28;20529;-71
2023/10/17 03:03:50;;;;;;;10.65;6.40;;;;;;;;;;5074946;28;20099;-71
2023/10/17 03:06:16;;;;;;;11.50;6.20;;;;;;;;;;5076859;28;20039;-72
2023/10/17 03:08:51;;;;;;;14.25;7.05;;;;;;;;;;5076793;28;20322;-71
2023/10/17 03:11:17;;;;;;;11.07;6.40;;;;;;;;;;5076196;28;20056;-73
2023/10/17 03:13:43;;;;;;;10.30;6.30;;;;;;;;;;5064566;28;20401;-71
2023/10/17 03:16:25;;;;;;;11.38;6.60;;;;;;;;;;5075878;28;20482;-71
2023/10/17 03:18:51;;;;;;;10.80;6.88;;;;;;;;;;5074132;28;20020;-72
2023/10/17 03:21:18;;;;;;;10.95;6.50;;;;;;;;;;5090969;28;20031;-71
2023/10/17 03:23:46;;;;;;;13.57;6.93;;;;;;;;;;5079085;28;20078;-71
2023/10/17 03:26:12;;;;;;;11.88;6.63;;;;;;;;;;5065728;28;20031;-70
2023/10/17 03:28:40;;;;;;;12.10;6.68;;;;;;;;;;5074711;28;20530;-71
2023/10/17 03:31:10;;;;;;;15.32;6.50;;;;;;;;;;5073626;28;20028;-71
2023/10/17 03:33:40;;;;;;;10.68;6.50;;;;;;;;;;5077980;28;20083;-72
2023/10/17 03:36:05;;;;;;;10.73;6.40;;;;;;;;;;5072173;28;20021;-73
2023/10/17 03:38:32;;;;;;;10.65;6.30;;;;;;;;;;5074147;28;20062;-70
2023/10/17 03:41:02;;;;;;;18.38;7.20;;;;;;;;;;5076120;28;20035;-70
2023/10/17 03:43:38;;;;;;;13.38;6.43;;;;;;;;;;5075112;28;20032;-70
2023/10/17 03:46:05;;;;;;;10.88;6.57;;;;;;;;;;5075877;28;20524;-70
2023/10/17 03:48:36;;;;;;;13.85;7.03;;;;;;;;;;5074452;28;20115;-69
2023/10/17 03:53:36;;;;;;;67.50;14.05;;;;;;;;;;5071929;28;20028;-71
2023/10/17 03:56:02;;;;;;;14.35;8.63;;;;;;;;;;5076538;28;20103;-71
2023/10/17 04:00:54;;;;;;;14.30;6.80;;;;;;;;;;5075573;28;20047;-71
2023/10/17 04:03:26;;;;;;;11.73;6.53;;;;;;;;;;5072512;28;20050;-71
2023/10/17 04:06:01;;;;;;;12.05;6.65;;;;;;;;;;5073634;28;20043;-71
2023/10/17 04:08:31;;;;;;;11.18;6.28;;;;;;;;;;5075288;28;20020;-72
2023/10/17 04:11:11;;;;;;;13.95;6.57;;;;;;;;;;5074548;28;20029;-71
2023/10/17 04:13:37;;;;;;;11.65;5.53;;;;;;;;;;5074175;28;20028;-71
2023/10/17 04:16:09;;;;;;;13.52;6.60;;;;;;;;;;5076062;28;20067;-71
2023/10/17 04:18:37;;;;;;;11.50;6.78;;;;;;;;;;5071733;28;20486;-71
2023/10/17 04:21:16;;;;;;;12.67;7.20;;;;;;;;;;5078039;28;20033;-72
2023/10/17 04:23:42;;;;;;;12.38;7.32;;;;;;;;;;5073455;28;20268;-72
2023/10/17 04:26:17;;;;;;;15.80;7.50;;;;;;;;;;5076345;28;20485;-68
2023/10/17 04:28:47;;;;;;;10.95;6.78;;;;;;;;;;5075168;28;20070;-68
2023/10/17 04:31:12;;;;;;;20.05;7.85;;;;;;;;;;5075951;28;20016;-68
2023/10/17 04:33:41;;;;;;;14.77;7.27;;;;;;;;;;5075503;28;20042;-68
2023/10/17 04:36:07;;;;;;;14.67;7.83;;;;;;;;;;5075435;28;20345;-67
2023/10/17 04:43:45;;;;;;;15.60;8.73;;;;;;;;;;5073440;28;20055;-71
2023/10/17 04:46:11;;;;;;;16.50;9.30;;;;;;;;;;5070044;28;20638;-71
2023/10/17 04:48:39;;;;;;;21.48;10.23;;;;;;;;;;5073899;28;20029;-70
2023/10/17 04:53:48;;;;;;;21.02;10.18;;;;;;;;;;5054503;28;20040;-69
2023/10/17 04:56:16;;;;;;;16.75;10.10;;;;;;;;;;5072178;28;20020;-70
2023/10/17 05:01:35;;;;;;;16.70;9.25;;;;;;;;;;5073290;28;20035;-69
2023/10/17 06:17:42;;;;;;;18.60;8.63;;;;;;;;;;5080517;28;20077;-70
2023/10/17 06:20:12;;;;;;;20.65;9.27;;;;;;;;;;5063838;28;20481;-70
2023/10/17 06:23:23;;;;;;;23.13;9.40;;;;;;;;;;5076754;28;20024;-72
2023/10/17 06:26:46;;;;;;;19.80;8.52;;;;;;;;;;5076850;28;20036;-71
2023/10/17 06:28:34;;;;;;;19.48;8.68;;;;;;;;;;5074753;28;20570;-71
2023/10/17 06:33:56;;;;;;;15.63;8.85;;;;;;;;;;5075397;28;20043;-70
2023/10/17 06:36:40;;;;;;;17.25;9.43;;;;;;;;;;5079299;28;20486;-70
2023/10/17 06:39:13;;;;;;;18.75;8.93;;;;;;;;;;5077253;28;20040;-71
2023/10/17 06:41:39;;;;;;;21.27;9.23;;;;;;;;;;5062278;28;20482;-71
2023/10/17 06:44:05;;;;;;;18.75;9.50;;;;;;;;;;5080641;28;20074;-71
2023/10/17 06:46:36;;;;;;;20.25;8.75;;;;;;;;;;5075403;28;20028;-70
2023/10/17 06:49:08;;;;;;;16.75;8.95;;;;;;;;;;5079063;28;20067;-71
2023/10/17 06:51:36;;;;;;;16.00;8.57;;;;;;;;;;5064507;28;20016;-70
2023/10/17 06:54:06;;;;;;;15.73;8.63;;;;;;;;;;5078225;28;20028;-71
2023/10/17 06:56:38;;;;;;;18.02;9.18;;;;;;;;;;5080090;28;20097;-70
2023/10/17 06:59:04;;;;;;;17.42;8.68;;;;;;;;;;5074052;28;20075;-70
2023/10/17 07:01:32;;;;;;;23.98;9.48;;;;;;;;;;5059652;28;20052;-68
2023/10/17 07:03:59;;;;;;;22.47;9.53;;;;;;;;;;5077084;28;20718;-70
2023/10/17 07:06:24;;;;;;;19.80;9.93;;;;;;;;;;5080821;28;20039;-70
2023/10/17 07:08:50;;;;;;;26.05;9.25;;;;;;;;;;5075750;28;20028;-70
2023/10/17 07:16:41;;;;;;;19.60;7.88;;;;;;;;;;5076958;28;20032;-69
2023/10/17 07:19:46;;;;;;;16.88;7.93;;;;;;;;;;5075796;28;20579;-70
2023/10/17 07:24:25;;;;;;;15.73;7.10;;;;;;;;;;5075409;28;20089;-69
2023/10/17 07:26:52;;;;;;;16.48;6.95;;;;;;;;;;5074562;28;20032;-71
2023/10/17 07:29:21;;;;;;;14.90;7.05;;;;;;;;;;5060949;28;20051;-70
2023/10/17 07:31:49;;;;;;;16.05;6.82;;;;;;;;;;5075435;28;20061;-71
2023/10/17 07:36:43;;;;;;;13.63;6.70;;;;;;;;;;5078017;28;20469;-72
2023/10/17 07:39:22;;;;;;;15.05;7.10;;;;;;;;;;5075166;28;20691;-68
2023/10/17 07:41:53;;;;;;;14.27;6.75;;;;;;;;;;5073158;28;20481;-71
2023/10/17 07:44:21;;;;;;;15.00;6.60;;;;;;;;;;5076857;28;20115;-70
2023/10/17 07:46:50;;;;;;;13.75;7.00;;;;;;;;;;5076013;28;20055;-72
2023/10/17 07:49:25;;;;;;;14.57;7.20;;;;;;;;;;5060157;28;20036;-71
2023/10/17 07:51:51;;;;;;;14.40;6.80;;;;;;;;;;5075534;28;20060;-71
2023/10/17 07:54:16;;;;;;;12.88;6.32;;;;;;;;;;5075660;28;20142;-70
2023/10/17 07:56:50;;;;;;;15.15;7.22;;;;;;;;;;5075292;28;20035;-71
2023/10/17 07:59:16;;;;;;;14.68;6.03;;;;;;;;;;5073080;28;20067;-71
2023/10/17 08:01:45;;;;;;;10.88;6.15;;;;;;;;;;5076195;28;20040;-71
2023/10/17 08:04:17;;;;;;;14.30;6.00;;;;;;;;;;5075058;28;20494;-72
2023/10/17 08:06:43;;;;;;;14.73;6.00;;;;;;;;;;5074706;28;20040;-70
2023/10/17 08:11:51;;;;;;;11.57;5.40;;;;;;;;;;5075748;28;20097;-74
2023/10/17 08:14:18;;;;;;;11.55;5.60;;;;;;;;;;5071901;28;20155;-69
2023/10/17 08:16:43;;;;;;;14.82;5.45;;;;;;;;;;5074009;28;20035;-70
2023/10/17 08:19:15;;;;;;;11.50;5.75;;;;;;;;;;5072463;28;20033;-72
2023/10/17 08:24:13;;;;;;;11.77;5.53;;;;;;;;;;5077135;28;20036;-70
2023/10/17 08:26:42;;;;;;;10.48;5.13;;;;;;;;;;5073517;28;20032;-71
2023/10/17 08:29:10;;;;;;;10.40;5.00;;;;;;;;;;5073012;28;20377;-71
2023/10/17 08:31:36;;;;;;;11.27;5.25;;;;;;;;;;5070786;28;20032;-72
2023/10/17 08:36:48;;;;;;;13.23;4.97;;;;;;;;;;5074367;28;20549;-72
2023/10/17 08:42:05;;;;;;;9.70;4.43;;;;;;;;;;5075383;28;20032;-70
2023/10/17 08:44:31;;;;;;;13.30;6.45;;;;;;;;;;5088041;28;20028;-72
2023/10/17 08:46:57;;;;;;;12.85;4.93;;;;;;;;;;5079342;28;20095;-72
2023/10/17 08:49:22;;;;;;;9.10;4.20;;;;;;;;;;5090075;28;20024;-75
2023/10/17 08:51:51;;;;;;;9.52;3.97;;;;;;;;;;5086186;28;20085;-76
2023/10/17 08:54:19;;;;;;;6.95;4.10;;;;;;;;;;5075420;28;20113;-76
2023/10/17 08:56:45;;;;;;;7.95;4.20;;;;;;;;;;5054500;28;20058;-77
2023/10/17 08:59:12;;;;;;;11.00;4.32;;;;;;;;;;5075605;28;20434;-73
2023/10/17 09:01:37;;;;;;;8.40;4.43;;;;;;;;;;5072435;28;20032;-73
2023/10/17 09:04:04;;;;;;;8.27;4.00;;;;;;;;;;5075948;28;20077;-73
2023/10/17 09:06:32;;;;;;;7.90;4.00;;;;;;;;;;5070813;28;20039;-72
2023/10/17 09:09:42;;;;;;;10.48;4.32;;;;;;;;;;5075236;28;20027;-72
2023/10/17 09:12:22;;;;;;;7.77;4.23;;;;;;;;;;5063352;28;20032;-71
2023/10/17 09:14:44;;;;;;;9.40;4.78;;;;;;;;;;5071232;28;20032;-72
2023/10/17 09:19:46;;;;;;;7.70;4.18;;;;;;;;;;5074903;28;20044;-72
2023/10/17 09:22:14;;;;;;;10.30;4.57;;;;;;;;;;5075458;28;20039;-72
2023/10/17 09:24:40;;;;;;;8.00;3.92;;;;;;;;;;5078385;28;20173;-71
2023/10/17 09:27:09;;;;;;;10.82;4.28;;;;;;;;;;5078269;28;20031;-72
2023/10/17 09:29:55;;;;;;;8.38;4.28;;;;;;;;;;5077786;28;20382;-73
2023/10/17 09:32:33;;;;;;;12.70;4.15;;;;;;;;;;5077202;28;20509;-73
2023/10/17 09:35:03;;;;;;;8.48;4.60;;;;;;;;;;5068278;28;20020;-72
2023/10/17 09:37:28;;;;;;;8.82;3.92;;;;;;;;;;5079074;28;20024;-74
2023/10/17 09:39:55;;;;;;;11.13;4.30;;;;;;;;;;5079017;28;20105;-71
2023/10/17 09:42:20;;;;;;;8.60;4.00;;;;;;;;;;5062411;28;20031;-73
2023/10/17 09:44:45;;;;;;;7.07;3.78;;;;;;;;;;5063379;28;20024;-73
2023/10/17 09:47:10;;;;;;;9.98;4.40;;;;;;;;;;5081223;28;20048;-73
2023/10/17 09:49:40;;;;;;;8.70;4.28;;;;;;;;;;5080833;28;20036;-74
2023/10/17 09:52:09;;;;;;;8.57;4.50;;;;;;;;;;5077442;28;20596;-73
2023/10/17 09:54:35;;;;;;;7.45;4.57;;;;;;;;;;5063424;28;20043;-73
2023/10/17 09:57:02;;;;;;;7.95;4.13;;;;;;;;;;5078318;28;20478;-73
2023/10/17 09:59:35;;;;;;;8.10;4.03;;;;;;;;;;5076773;28;20485;-73
2023/10/17 10:02:00;;;;;;;7.47;3.88;;;;;;;;;;5090518;28;20541;-74
2023/10/17 10:04:25;;;;;;;9.48;4.10;;;;;;;;;;5076274;28;20028;-73
2023/10/17 10:07:11;;;;;;;8.02;3.75;;;;;;;;;;5076691;28;20755;-73
2023/10/17 10:09:36;;;;;;;8.90;3.75;;;;;;;;;;5075341;28;20103;-72
2023/10/17 10:12:01;;;;;;;12.32;3.90;;;;;;;;;;5076324;28;20124;-71
2023/10/17 10:14:26;;;;;;;11.00;4.25;;;;;;;;;;5077426;28;20028;-73
2023/10/17 10:16:57;;;;;;;9.60;3.60;;;;;;;;;;5078263;28;20504;-72
2023/10/17 10:19:23;;;;;;;7.78;3.63;;;;;;;;;;5073636;28;20500;-73
2023/10/17 10:21:55;;;;;;;8.55;4.20;;;;;;;;;;5076619;28;20028;-72
2023/10/17 10:24:28;;;;;;;7.13;3.33;;;;;;;;;;5075212;28;20070;-73
2023/10/17 10:27:08;;;;;;;8.02;3.50;;;;;;;;;;5077078;28;20021;-72
2023/10/17 10:29:33;;;;;;;5.68;3.22;;;;;;;;;;5075719;28;20016;-71
2023/10/17 10:32:05;;;;;;;7.72;3.38;;;;;;;;;;5072387;28;20508;-73
2023/10/17 10:34:31;;;;;;;6.50;2.97;;;;;;;;;;5072839;28;20062;-73
2023/10/17 10:36:57;;;;;;;7.80;3.10;;;;;;;;;;5075140;28;20045;-73
2023/10/17 10:39:23;;;;;;;8.23;3.28;;;;;;;;;;5074627;28;20062;-73
2023/10/17 10:41:58;;;;;;;7.70;2.85;;;;;;;;;;5073152;28;20603;-73
2023/10/17 10:44:25;;;;;;;8.90;2.78;;;;;;;;;;5075321;28;20140;-74
2023/10/17 10:46:50;;;;;;;9.32;2.88;;;;;;;;;;5077048;28;20532;-74
2023/10/17 10:49:15;;;;;;;4.97;2.55;;;;;;;;;;5075648;28;20058;-74
2023/10/17 10:51:50;;;;;;;5.50;2.47;;;;;;;;;;5057969;28;20032;-73
2023/10/17 10:54:17;;;;;;;7.35;2.45;;;;;;;;;;5076653;28;20280;-72
2023/10/17 10:56:49;;;;;;;4.95;2.50;;;;;;;;;;5076643;28;20027;-74
2023/10/17 10:59:19;;;;;;;9.05;3.70;;;;;;;;;;5072365;28;20075;-73
2023/10/17 11:01:47;;;;;;;4.32;2.42;;;;;;;;;;5061786;28;20020;-71
2023/10/17 11:04:12;;;;;;;6.38;2.40;;;;;;;;;;5078204;28;20020;-70
2023/10/17 11:06:38;;;;;;;5.80;2.67;;;;;;;;;;5075654;28;20035;-71
2023/10/17 11:09:07;;;;;;;4.63;2.60;;;;;;;;;;5060538;28;20393;-72
2023/10/17 11:11:42;;;;;;;5.97;2.25;;;;;;;;;;5075189;28;20062;-72
2023/10/17 11:14:14;;;;;;;6.05;2.05;;;;;;;;;;5074898;28;20545;-72
2023/10/17 11:16:39;;;;;;;7.22;2.33;;;;;;;;;;5075908;28;20638;-73
2023/10/17 11:19:05;;;;;;;6.70;2.20;;;;;;;11.71;nan;101010.91;5058712;28;20024;-72
2023/10/17 11:21:31;;;;;;;4.25;2.28;;;;;;;;;;5070329;28;20024;-73
2023/10/17 11:23:56;;;;;;;6.00;2.20;;;;;;;;;;5087541;28;20042;-72
2023/10/17 11:26:23;;;;;;;5.78;2.05;;;;;;;;;;5054730;28;20038;-71
2023/10/17 11:28:51;;;;;;;6.90;2.20;;;;;;;;;;5073842;28;20063;-71
2023/10/17 11:31:24;;;;;;;4.88;2.00;;;;;;;;;;5074262;28;20040;-74
2023/10/17 11:33:58;;;;;;;4.88;2.03;;;;;;;;;;5073827;28;20032;-71
2023/10/17 11:36:24;;;;;;;5.35;2.20;;;;;;;;;;5059173;28;20028;-72
2023/10/17 11:38:56;;;;;;;3.42;1.88;;;;;;;;;;5074537;28;20492;-72
2023/10/17 11:41:28;;;;;;;5.85;2.33;;;;;;;;;;5073666;28;20095;-72
2023/10/17 11:43:54;;;;;;;5.88;2.28;;;;;;;;;;5075215;28;20032;-70
2023/10/17 11:46:32;;;;;;;3.55;1.90;;;;;;;;;;5079281;28;20040;-72
2023/10/17 11:49:29;;;;;;;4.68;2.22;;;;;;;;;;5075832;28;20028;-71
2023/10/17 11:52:10;;;;;;;7.28;2.22;;;;;;;;;;5072595;28;20335;-73
2023/10/17 11:54:55;;;;;;;4.10;2.00;;;;;;;;;;5061706;28;20028;-72
2023/10/17 11:57:23;;;;;;;3.88;2.40;;;;;;;;;;5058556;28;20543;-73
2023/10/17 11:59:55;;;;;;;4.22;2.25;;;;;;;;;;5071953;28;20070;-74
2023/10/17 12:02:21;;;;;;;3.13;1.85;;;;;;;;;;5071757;28;20749;-73
2023/10/17 12:04:46;;;;;;;3.63;1.90;;;;;;;;;;5088232;28;20028;-73
2023/10/17 12:07:11;;;;;;;5.55;2.67;;;;;;;;;;5071314;28;20027;-73
2023/10/17 12:09:37;;;;;;;5.53;1.73;;;;;;;;;;5072748;28;20050;-69
2023/10/17 12:12:02;;;;;;;3.78;2.20;;;;;;;;;;5074745;28;20020;-72
2023/10/17 12:14:28;;;;;;;2.90;1.88;;;;;;;;;;5060900;28;20062;-73
2023/10/17 12:16:54;;;;;;;4.60;1.98;;;;;;;;;;5073776;28;20024;-73
2023/10/17 12:19:22;;;;;;;4.22;2.10;;;;;;;;;;5074497;28;20030;-71
2023/10/17 12:21:48;;;;;;;6.57;2.17;;;;;;;;;;5072777;28;20617;-70
2023/10/17 12:24:20;;;;;;;3.45;2.00;;;;;;;;;;5075567;28;20103;-69
2023/10/17 12:26:52;;;;;;;4.93;2.20;;;;;;;;;;5075215;28;20060;-70
2023/10/17 12:29:17;;;;;;;18.33;4.53;;;;;;;;;;5075824;28;20533;-69
2023/10/17 12:31:43;;;;;;;4.85;2.60;;;;;;;;;;5072786;28;20040;-70
2023/10/17 12:34:08;;;;;;;4.65;2.33;;;;;;;;;;5074229;28;20033;-69
2023/10/17 12:36:37;;;;;;;7.00;1.90;;;;;;;;;;5074871;28;20024;-72
2023/10/17 12:39:03;;;;;;;3.10;1.98;;;;;;;;;;5071943;28;20093;-71
2023/10/17 12:41:30;;;;;;;4.35;1.80;;;;;;;;;;5074585;28;20058;-71
2023/10/17 12:43:55;;;;;;;8.00;2.67;;;;;;;;;;5070067;28;20078;-74
2023/10/17 12:46:20;;;;;;;8.23;1.85;;;;;;;;;;5075240;28;20435;-73
2023/10/17 12:48:46;;;;;;;4.32;2.00;;;;;;;;;;5076036;28;20039;-72
2023/10/17 12:51:12;;;;;;;5.38;2.03;;;;;;;;;;5060752;28;20032;-71
2023/10/17 12:53:37;;;;;;;2.85;1.77;;;;;;;;;;5073717;28;20409;-71
2023/10/17 12:56:04;;;;;;;3.13;1.95;;;;;;;;;;5073880;28;20459;-71
2023/10/17 12:58:32;;;;;;;5.57;1.95;;;;;;;;;;5090084;28;20040;-70
2023/10/17 13:00:58;;;;;;;4.35;3.15;;;;;;;;;;5060903;28;20028;-71
2023/10/17 13:03:23;;;;;;;5.30;2.50;;;;;;;;;;5065115;28;21070;-70
2023/10/17 13:05:50;;;;;;;5.43;2.10;;;;;;;;;;5073228;28;20040;-71
2023/10/17 13:08:15;;;;;;;6.68;1.95;;;;;;;;;;5064538;28;20424;-70
2023/10/17 13:10:40;;;;;;;5.30;2.37;;;;;;;;;;5078620;28;20031;-72
2023/10/17 13:13:06;;;;;;;3.67;2.10;;;;;;;;;;5075813;28;20296;-71
2023/10/17 13:15:31;;;;;;;7.00;1.93;;;;;;;;;;5078148;28;20424;-73
2023/10/17 13:18:00;;;;;;;4.73;2.30;;;;;;;;;;5077658;28;20280;-72
2023/10/17 13:20:28;;;;;;;;;;;;;;;;;;5059651;28;20288;-72
2023/10/17 13:22:55;;;;;;;3.58;2.00;;;;;;;;;;5076640;28;20065;-72
2023/10/17 13:25:20;;;;;;;3.30;2.38;;;;;;;;;;5079050;28;20153;-72
2023/10/17 13:27:46;;;;;;;4.10;1.90;;;;;;;;;;5076988;28;20502;-70
2023/10/17 13:30:11;;;;;;;3.83;1.97;;;;;;;;;;5076749;28;20047;-70
2023/10/17 13:32:36;;;;;;;3.47;2.00;;;;;;;;;;5076791;28;20103;-71
2023/10/17 13:35:01;;;;;;;3.67;2.00;;;;;;;;;;5076226;28;20028;-69
2023/10/17 13:37:30;;;;;;;4.18;2.08;;;;;;;;;;5058836;28;20074;-68
2023/10/17 13:39:55;;;;;;;5.22;1.85;;;;;;;;;;5073794;28;20437;-69
2023/10/17 13:42:21;;;;;;;4.63;2.03;;;;;;;;;;5075403;28;20093;-73
2023/10/17 13:44:46;;;;;;;4.90;2.10;;;;;;;;;;5075001;28;20053;-72
2023/10/17 13:47:11;;;;;;;4.70;2.00;;;;;;;;;;5057582;28;20064;-72
2023/10/17 13:49:36;;;;;;;3.87;1.93;;;;;;;;;;5076211;28;20016;-70
2023/10/17 13:52:03;;;;;;;5.13;2.15;;;;;;;;;;5061793;28;20565;-73
2023/10/17 13:54:34;;;;;;;4.35;2.05;;;;;;;;;;5074835;28;20036;-74
2023/10/17 13:57:00;;;;;;;2.55;1.80;;;;;;;;;;5074656;28;20155;-74
2023/10/17 13:59:38;;;;;;;5.80;2.00;;;;;;;;;;5073482;28;20111;-71
2023/10/17 14:02:04;;;;;;;4.37;2.40;;;;;;;;;;5074464;28;20520;-75
2023/10/17 14:04:29;;;;;;;3.65;2.20;;;;;;;;;;5073751;28;20036;-75
2023/10/17 14:06:56;;;;;;;5.93;2.67;;;;;;;;;;5074399;28;20184;-75
2023/10/17 14:09:23;;;;;;;5.88;2.30;;;;;;;;;;5090423;28;20513;-76
2023/10/17 14:11:50;;;;;;;4.72;2.17;;;;;;;;;;5076527;28;20086;-78
2023/10/17 14:14:15;;;;;;;6.90;2.55;;;;;;;;;;5080121;28;20035;-77
2023/10/17 14:16:41;;;;;;;7.80;2.67;;;;;;;;;;5075463;28;20036;-77
2023/10/17 14:19:15;;;;;;;5.47;1.98;;;;;;;;;;5074393;28;20302;-77
2023/10/17 14:21:43;;;;;;;3.70;2.20;;;;;;;;;;5073671;28;20052;-79
2023/10/17 14:24:20;;;;;;;2.53;1.73;;;;;;;;;;5077870;28;20115;-77
2023/10/17 14:26:48;;;;;;;2.58;1.83;;;;;;;;;;5095543;28;20406;-78
2023/10/17 14:29:14;;;;;;;5.05;2.10;;;;;;;;;;5062757;28;20043;-78
2023/10/17 14:31:39;;;;;;;5.88;2.45;;;;;;;;;;5077605;28;20625;-79
2023/10/17 14:34:06;;;;;;;4.50;1.90;;;;;;;;;;5076123;28;20027;-79
2023/10/17 14:36:32;;;;;;;3.67;2.10;;;;;;;;;;5073148;28;20516;-78
2023/10/17 14:38:59;;;;;;;2.80;1.73;;;;;;;;;;5059525;28;20052;-78
2023/10/17 14:41:24;;;;;;;4.18;2.03;;;;;;;;;;5077386;28;20773;-78
2023/10/17 14:43:49;;;;;;;5.97;2.00;;;;;;;;;;5077490;28;20032;-77
2023/10/17 14:46:16;;;;;;;5.72;2.47;;;;;;;;;;5076855;28;20442;-78
2023/10/17 14:48:42;;;;;;;3.33;1.92;;;;;;;;;;5077185;28;20024;-78
2023/10/17 14:51:08;;;;;;;2.60;1.92;;;;;;;;;;5075321;28;20034;-77
2023/10/17 14:53:33;;;;;;;7.82;2.53;;;;;;;;;;5076139;28;20362;-78
2023/10/17 14:55:59;;;;;;;3.25;2.15;;;;;;;;;;5077824;28;20138;-75
2023/10/17 14:58:25;;;;;;;5.32;2.00;;;;;;;;;;5071807;28;20028;-76
2023/10/17 15:00:52;;;;;;;4.03;2.20;;;;;;;;;;5076532;28;20020;-77
2023/10/17 15:03:17;;;;;;;5.95;2.90;;;;;;;;;;5061269;28;20352;-76
2023/10/17 15:05:43;;;;;;;28.63;4.30;;;;;;;;;;5065101;28;20020;-79
2023/10/17 15:08:11;;;;;;;9.63;2.67;;;;;;;;;;5075489;28;20074;-77
2023/10/17 15:10:36;;;;;;;8.90;2.80;;;;;;;;;;5077126;28;20039;-78
2023/10/17 15:13:01;;;;;;;10.90;2.50;;;;;;;;;;5073070;28;20033;-79
2023/10/17 15:15:27;;;;;;;7.83;2.60;;;;;;;;;;5078753;28;20032;-77
2023/10/17 15:17:52;;;;;;;9.23;3.53;;;;;;;;;;5075948;28;20303;-77
2023/10/17 15:20:18;;;;;;;10.73;4.23;;;;;;;;;;5075296;28;20711;-76
2023/10/17 15:22:44;;;;;;;18.20;5.32;;;;;;;;;;5074690;28;20275;-77
2023/10/17 15:25:12;;;;;;;14.38;5.68;;;;;;;;;;5075434;28;20943;-76
2023/10/17 15:27:38;;;;;;;13.00;5.85;;;;;;;;;;5078984;28;20031;-77
2023/10/17 15:30:03;;;;;;;22.98;7.13;;;;;;;;;;5060391;28;20032;-76
2023/10/17 15:32:29;;;;;;;20.77;6.95;;;;;;;;;;5078151;28;20579;-78
2023/10/17 15:34:54;;;;;;;17.58;7.25;;;;;;;;;;5076071;28;20040;-78
2023/10/17 15:37:19;;;;;;;20.50;7.43;;;;;;;;;;5076727;28;20032;-75
2023/10/17 15:39:46;;;;;;;19.07;7.90;;;;;;;;;;5074566;28;20047;-76
2023/10/17 15:42:13;;;;;;;24.88;8.13;;;;;;;;;;5078414;28;20705;-78
2023/10/17 15:44:40;;;;;;;27.60;7.95;;;;;;;;;;5075715;28;20059;-76
2023/10/17 15:47:06;;;;;;;37.75;8.50;;;;;;;;;;5079003;28;20544;-74
2023/10/17 15:49:32;;;;;;;16.17;6.20;;;;;;;;;;5077486;28;20025;-77
2023/10/17 15:51:58;;;;;;;16.85;5.55;;;;;;;;;;5062929;28;20408;-73
2023/10/17 15:54:23;;;;;;;22.85;6.85;;;;;;;;;;5074701;28;20557;-72
2023/10/17 15:56:49;;;;;;;20.87;6.83;;;;;;;;;;5076533;28;20035;-74
2023/10/17 15:59:15;;;;;;;25.70;6.27;;;;;;;;;;5091215;28;20288;-75
2023/10/17 16:01:40;;;;;;;31.33;6.53;;;;;;;;;;5074264;28;20403;-73
2023/10/17 16:04:06;;;;;;;24.03;7.10;;;;;;;;;;5058558;28;20024;-74
2023/10/17 16:06:32;;;;;;;32.25;6.07;;;;;;;;;;5072613;28;20741;-73
2023/10/17 16:08:57;;;;;;;30.40;6.93;;;;;;;;;;5073955;28;20048;-74
2023/10/17 16:11:22;;;;;;;26.10;6.17;;;;;;;;;;5057985;28;20284;-72
2023/10/17 16:13:48;;;;;;;26.57;8.13;;;;;;;;;;5064696;28;20033;-73
2023/10/17 16:16:13;;;;;;;25.42;7.50;;;;;;;;;;5073616;28;20430;-74
2023/10/17 16:18:39;;;;;;;22.02;8.20;;;;;;;;;;5061032;28;20052;-74
2023/10/17 16:21:10;;;;;;;28.98;13.65;;;;;;;;;;5058039;28;20029;-74
2023/10/17 16:23:36;;;;;;;34.13;11.63;;;;;;;;;;5073481;28;20030;-73
2023/10/17 16:26:02;;;;;;;36.75;9.10;;;;;;;;;;5061846;28;20679;-74
2023/10/17 16:28:29;;;;;;;35.28;9.35;;;;;;;;;;5066337;28;20028;-74
2023/10/17 16:30:54;;;;;;;41.63;9.30;;;;;;;;;;5074335;28;20016;-75
2023/10/17 16:33:21;;;;;;;42.40;9.83;;;;;;;;;;5075799;28;20035;-73
2023/10/17 16:35:56;;;;;;;36.42;9.35;;;;;;;;;;5090059;28;20025;-72
2023/10/17 16:38:21;;;;;;;30.55;9.35;;;;;;;;;;5075658;28;20055;-72
2023/10/17 16:40:49;;;;;;;27.10;9.68;;;;;;;;;;5074925;28;20557;-72